createdAt,value
2018-11-04T00:02:49.840Z,33.67
2018-11-04T00:07:52.327Z,38.15
2018-11-04T00:12:54.790Z,37.20
2018-11-04T00:17:57.398Z,37.85
2018-11-04T00:22:59.905Z,38.15
2018-11-04T00:28:02.388Z,35.55
2018-11-04T00:33:05.091Z,37.75
2018-11-04T00:38:07.671Z,34.95
2018-11-04T00:43:10.102Z,38.60
2018-11-04T00:48:12.920Z,37.08
2018-11-04T00:53:15.287Z,35.43
2018-11-04T00:58:17.720Z,41.02
2018-11-04T01:03:20.127Z,39.67
2018-11-04T01:08:22.996Z,36.80
2018-11-04T01:13:25.352Z,38.25
2018-11-04T01:18:27.815Z,38.95
2018-11-04T01:23:30.395Z,35.85
2018-11-04T01:28:32.794Z,40.78
2018-11-04T01:33:35.425Z,41.37
2018-11-04T01:38:37.855Z,41.53
2018-11-04T01:43:40.303Z,39.40
2018-11-04T01:48:42.757Z,39.67
2018-11-04T01:53:45.410Z,38.65
2018-11-04T01:58:48.172Z,40.23
2018-11-04T02:03:50.568Z,41.53
2018-11-04T02:08:52.917Z,41.55
2018-11-04T02:13:55.605Z,41.90
2018-11-04T02:18:58.133Z,41.13
2018-11-04T02:24:00.616Z,41.42
2018-11-04T02:29:03.123Z,45.03
2018-11-04T02:34:05.571Z,38.83
2018-11-04T02:39:08.288Z,40.83
2018-11-04T02:44:10.713Z,39.85
2018-11-04T02:49:13.091Z,40.52
2018-11-04T02:54:15.593Z,43.10
2018-11-04T02:59:18.068Z,40.63
2018-11-04T03:04:21.370Z,41.58
2018-11-04T03:09:23.934Z,39.80
2018-11-04T03:15:29.669Z,42.13
2018-11-04T03:20:32.156Z,42.75
2018-11-04T03:25:35.025Z,41.30
2018-11-04T03:30:37.768Z,42.65
2018-11-04T03:35:40.200Z,41.58
2018-11-04T03:40:42.694Z,41.92
2018-11-04T03:45:45.107Z,39.63
2018-11-04T03:50:47.493Z,42.17
2018-11-04T03:55:49.958Z,45.40
2018-11-04T04:00:52.380Z,45.80
2018-11-04T04:05:54.872Z,46.50
2018-11-04T04:10:57.390Z,42.67
2018-11-04T04:15:59.836Z,47.65
2018-11-04T04:21:08.432Z,44.10
2018-11-04T04:26:11.636Z,44.77
2018-11-04T04:31:14.095Z,43.30
2018-11-04T04:36:16.523Z,42.08
2018-11-04T04:41:18.955Z,49.50
2018-11-04T04:46:21.293Z,49.08
2018-11-04T04:51:23.737Z,47.73
2018-11-04T04:56:26.096Z,50.50
2018-11-04T05:01:28.571Z,52.40
2018-11-04T05:06:30.963Z,54.25
2018-11-04T05:11:33.375Z,50.98
2018-11-04T05:16:35.763Z,50.05
2018-11-04T05:21:38.255Z,51.50
2018-11-04T05:26:40.749Z,51.77
2018-11-04T05:31:43.172Z,51.23
2018-11-04T05:36:45.575Z,47.33
2018-11-04T05:41:48.027Z,49.90
2018-11-04T05:46:50.407Z,50.70
2018-11-04T05:51:52.827Z,49.20
2018-11-04T05:56:55.217Z,49.63
2018-11-04T06:01:57.553Z,48.15
2018-11-04T06:06:59.935Z,50.58
2018-11-04T06:12:02.499Z,52.23
2018-11-04T06:17:04.903Z,54.25
2018-11-04T06:22:08.299Z,50.50
2018-11-04T06:27:10.660Z,49.25
2018-11-04T06:32:13.152Z,52.43
2018-11-04T06:37:15.559Z,51.33
2018-11-04T06:42:18.140Z,50.17
2018-11-04T06:47:20.543Z,46.60
2018-11-04T06:52:23.869Z,51.48
2018-11-04T06:57:26.357Z,49.25
2018-11-04T07:02:28.843Z,51.55
2018-11-04T07:07:31.241Z,50.70
2018-11-04T07:12:33.695Z,49.48
2018-11-04T07:17:36.072Z,50.33
2018-11-04T07:22:38.530Z,53.50
2018-11-04T07:27:41.075Z,54.27
2018-11-04T07:32:46.259Z,49.90
2018-11-04T07:37:48.641Z,54.13
2018-11-04T07:42:51.086Z,52.93
2018-11-04T07:47:53.488Z,56.28
2018-11-04T07:52:55.873Z,60.30
2018-11-04T07:57:58.276Z,51.58
2018-11-04T08:03:00.677Z,50.17
2018-11-04T08:08:03.028Z,53.90
2018-11-04T08:13:06.080Z,54.03
2018-11-04T08:18:08.893Z,55.17
2018-11-04T08:23:11.342Z,55.43
2018-11-04T08:28:13.764Z,57.55
2018-11-04T08:33:16.195Z,54.03
2018-11-04T08:38:18.687Z,53.73
2018-11-04T08:43:21.073Z,49.98
2018-11-04T08:48:23.596Z,52.45
2018-11-04T08:53:26.002Z,50.65
2018-11-04T08:58:28.538Z,53.48
2018-11-04T09:03:30.936Z,54.67
2018-11-04T09:08:33.535Z,51.13
2018-11-04T09:13:36.778Z,52.65
2018-11-04T09:18:39.444Z,49.90
2018-11-04T09:23:42.552Z,55.75
2018-11-04T09:28:45.190Z,55.28
2018-11-04T09:33:48.730Z,53.28
2018-11-04T09:38:51.498Z,49.88
2018-11-04T09:43:53.918Z,49.85
2018-11-04T09:48:56.487Z,51.50
2018-11-04T09:53:59.150Z,57.27
2018-11-04T09:59:01.577Z,50.73
2018-11-04T10:04:04.467Z,58.52
2018-11-04T10:09:08.229Z,56.23
2018-11-04T10:14:11.016Z,57.70
2018-11-04T10:19:15.356Z,52.15
2018-11-04T10:24:17.644Z,51.58
2018-11-04T10:29:20.219Z,50.33
2018-11-04T10:34:22.716Z,54.08
2018-11-04T10:39:31.794Z,47.58
2018-11-04T10:44:34.274Z,49.90
2018-11-04T10:49:37.298Z,51.28
2018-11-04T10:54:39.934Z,48.50
2018-11-04T10:59:42.549Z,50.28
2018-11-04T11:04:45.153Z,54.75
2018-11-04T11:09:49.663Z,52.80
2018-11-04T11:14:52.242Z,51.60
2018-11-04T11:19:54.754Z,52.53
2018-11-04T11:24:57.397Z,53.75
2018-11-04T11:30:00.066Z,47.80
2018-11-04T11:35:02.775Z,51.25
2018-11-04T11:40:06.108Z,49.25
2018-11-04T11:45:09.466Z,45.58
2018-11-04T11:50:11.831Z,46.25
2018-11-04T11:55:14.548Z,45.98
2018-11-04T12:00:16.947Z,41.65
2018-11-04T12:05:19.820Z,44.35
2018-11-04T12:10:22.450Z,38.42
2018-11-04T12:15:24.873Z,39.98
2018-11-04T12:20:27.432Z,38.13
2018-11-04T12:25:29.878Z,38.17
2018-11-04T12:30:32.443Z,35.65
2018-11-04T12:35:34.963Z,37.10
2018-11-04T12:40:37.521Z,35.68
2018-11-04T12:45:40.057Z,32.00
2018-11-04T12:50:42.535Z,34.53
2018-11-04T12:55:45.173Z,31.25
2018-11-04T13:00:47.598Z,33.08
2018-11-04T13:05:50.292Z,28.32
2018-11-04T13:10:52.815Z,31.85
2018-11-04T13:15:55.412Z,33.25
2018-11-04T13:20:58.312Z,31.33
2018-11-04T13:26:00.749Z,29.82
2018-11-04T13:31:03.446Z,29.67
2018-11-04T13:36:06.318Z,26.62
2018-11-04T13:41:08.725Z,27.70
2018-11-04T13:46:11.339Z,26.20
2018-11-04T13:51:14.366Z,21.85
2018-11-04T13:56:20.185Z,23.52
2018-11-04T14:01:22.627Z,25.23
2018-11-04T14:06:25.015Z,24.63
2018-11-04T14:11:27.475Z,23.83
2018-11-04T14:16:29.968Z,26.15
2018-11-04T14:21:32.372Z,25.40
2018-11-04T14:26:34.783Z,26.10
2018-11-04T14:31:37.581Z,23.10
2018-11-04T14:36:40.481Z,21.77
2018-11-04T14:41:42.807Z,20.88
2018-11-04T14:46:45.672Z,18.73
2018-11-04T14:51:48.126Z,18.30
2018-11-04T14:56:50.572Z,19.82
2018-11-04T15:01:52.992Z,16.55
2018-11-04T15:06:55.550Z,17.85
2018-11-04T15:11:57.984Z,17.48
2018-11-04T15:17:00.446Z,16.90
2018-11-04T15:22:02.929Z,17.02
2018-11-04T15:27:05.960Z,16.85
2018-11-04T15:32:08.441Z,16.12
2018-11-04T15:37:11.038Z,19.17
2018-11-04T15:42:13.408Z,17.42
2018-11-04T15:47:15.795Z,16.00
2018-11-04T15:52:18.180Z,18.42
2018-11-04T15:57:20.768Z,17.48
2018-11-04T16:02:23.116Z,15.85
2018-11-04T16:07:25.707Z,15.08
2018-11-04T16:12:28.081Z,16.23
2018-11-04T16:17:30.484Z,17.17
2018-11-04T16:22:32.911Z,15.35
2018-11-04T16:27:35.259Z,18.25
2018-11-04T16:32:37.972Z,16.45
2018-11-04T16:37:41.235Z,17.85
2018-11-04T16:42:43.538Z,18.52
2018-11-04T16:47:45.960Z,18.80
2018-11-04T16:52:48.363Z,20.43
2018-11-04T16:57:50.757Z,20.02
2018-11-04T17:02:53.219Z,19.27
2018-11-04T17:07:55.776Z,18.32
2018-11-04T17:12:59.126Z,18.35
2018-11-04T17:18:01.601Z,21.55
2018-11-04T17:23:04.157Z,18.98
2018-11-04T17:28:06.528Z,21.42
2018-11-04T17:33:09.001Z,20.80
2018-11-04T17:38:11.374Z,19.60
2018-11-04T17:43:13.943Z,20.27
2018-11-04T17:48:23.086Z,22.98
2018-11-04T17:53:25.517Z,19.48
2018-11-04T17:58:27.894Z,18.60
2018-11-04T18:03:30.357Z,21.75
2018-11-04T18:08:32.799Z,20.17
2018-11-04T18:13:35.285Z,18.07
2018-11-04T18:18:37.732Z,17.10
2018-11-04T18:23:40.155Z,17.57
2018-11-04T18:28:42.506Z,17.17
2018-11-04T18:33:44.927Z,20.27
2018-11-04T18:38:47.432Z,19.87
2018-11-04T18:43:49.934Z,22.00
2018-11-04T18:48:52.681Z,19.57
2018-11-04T18:53:55.864Z,21.25
2018-11-04T18:58:58.301Z,19.57
2018-11-04T19:04:00.699Z,20.10
2018-11-04T19:09:04.816Z,24.87
2018-11-04T19:14:07.629Z,23.12
2018-11-04T19:19:10.224Z,23.70
2018-11-04T19:24:12.988Z,23.40
2018-11-04T19:29:15.392Z,23.95
2018-11-04T19:34:18.423Z,27.62
2018-11-04T19:39:20.970Z,29.75
2018-11-04T19:44:23.563Z,26.95
2018-11-04T19:49:26.120Z,27.02
2018-11-04T19:54:28.617Z,23.95
2018-11-04T19:59:31.223Z,26.23
2018-11-04T20:04:33.911Z,25.88
2018-11-04T20:09:36.379Z,26.00
2018-11-04T20:14:39.039Z,27.55
2018-11-04T20:19:46.985Z,22.87
2018-11-04T20:24:55.078Z,22.20
2018-11-04T20:29:57.533Z,20.08
2018-11-04T20:34:59.998Z,23.52
2018-11-04T20:40:08.279Z,23.30
2018-11-04T20:45:11.191Z,25.30
2018-11-04T20:50:19.344Z,23.40
2018-11-04T20:55:21.724Z,22.42
2018-11-04T21:00:24.197Z,28.85
2018-11-04T21:05:26.578Z,22.85
2018-11-04T21:10:29.001Z,24.20
2018-11-04T21:15:31.402Z,23.02
2018-11-04T21:20:33.793Z,25.72
2018-11-04T21:25:36.376Z,20.82
2018-11-04T21:30:38.695Z,22.70
2018-11-04T21:36:45.550Z,21.27
2018-11-04T21:41:47.948Z,24.82
2018-11-04T21:46:50.319Z,21.93
2018-11-04T21:51:52.723Z,23.65
2018-11-04T21:56:55.085Z,24.40
2018-11-04T22:01:57.533Z,23.62
2018-11-04T22:06:59.975Z,22.70
2018-11-04T22:12:02.590Z,22.52
2018-11-04T22:17:05.244Z,21.68
2018-11-04T22:22:07.608Z,24.45
2018-11-04T22:27:10.027Z,21.25
2018-11-04T22:32:12.405Z,20.72
2018-11-04T22:37:14.820Z,23.30
2018-11-04T22:42:17.273Z,20.25
2018-11-04T22:47:20.367Z,22.80
2018-11-04T22:52:22.817Z,24.18
2018-11-04T22:57:25.169Z,25.27
2018-11-04T23:02:27.552Z,25.35
2018-11-04T23:07:30.047Z,21.77
2018-11-04T23:12:32.526Z,22.80
2018-11-04T23:17:34.961Z,23.32
2018-11-04T23:22:37.554Z,22.02
2018-11-04T23:27:41.328Z,23.10
2018-11-04T23:32:45.469Z,23.20
2018-11-04T23:37:48.048Z,24.37
2018-11-04T23:42:50.519Z,27.42
2018-11-04T23:47:53.021Z,24.70
2018-11-04T23:52:55.409Z,25.45
2018-11-04T23:57:57.797Z,25.10
